Time;durP1;ratioP1;P1;durP2;ratioP2;P2;SDS_P1;SDS_P2;PMS_P1;PMS_P2;Temp;Humidity;BMP_temperature;BMP_pressure;BME280_temperature;BME280_humidity;BME280_pressure;Samples;Min_cycle;Max_cycle;Signal;HPM_P1;HPM_P2
2021/09/30 00:00:42;;;;;;;;;;;;;;;13.69;100.00;99486.48;112190;1194;66047;-80
2021/09/30 00:03:09;;;;;;;;;;;;;;;13.70;100.00;99486.92;112218;1194;61066;-80
2021/09/30 00:05:38;;;;;;;;;;;;;;;13.72;100.00;99485.02;112258;1196;64972;-80
2021/09/30 00:08:05;;;;;;;;;;;;;;;13.72;100.00;99488.92;112235;1194;60975;-80
2021/09/30 00:10:32;;;;;;;;;;;;;;;13.73;100.00;99489.38;112276;1194;61725;-80
2021/09/30 00:13:36;;;;;;;;;;;;;;;13.74;100.00;99490.20;112109;1196;67106;-80
2021/09/30 00:16:07;;;;;;;;;;;;;;;13.74;100.00;99494.08;112256;1195;61231;-80
2021/09/30 00:35:15;;;;;;;;;;;;;;;13.81;100.00;99505.95;112232;1195;60975;-79
2021/09/30 00:40:31;;;;;;;;;;;;;;;13.83;100.00;99511.30;112233;1196;66868;-81
2021/09/30 01:46:55;;;;;;;;;;;;;;;13.73;100.00;99522.59;112114;1195;61039;-81
2021/09/30 03:00:35;;;;;;;;;;;;;;;13.51;100.00;99558.66;112286;1196;61393;-80
2021/09/30 03:03:03;;;;;;;;;;;;;;;13.51;100.00;99553.83;112243;1195;64065;-82
2021/09/30 03:05:30;;;;;;;;;;;;;;;13.50;100.00;99551.15;112226;1195;61045;-80
2021/09/30 03:07:57;;;;;;;;;;;;;;;13.50;100.00;99551.71;112273;1195;61003;-80
2021/09/30 03:10:25;;;;;;;;;;;;;;;13.50;100.00;99552.65;112267;1195;66009;-81
2021/09/30 03:12:54;;;;;;;;;;;;;;;13.49;100.00;99560.59;112055;1196;61075;-79
2021/09/30 03:17:58;;;;;;;;;;;;;;;13.48;100.00;99579.17;112273;1196;61080;-79
2021/09/30 03:23:21;;;;;;;;;;;;;;;13.48;100.00;99582.59;111994;1195;64666;-80
2021/09/30 03:25:49;;;;;;;;;;;;;;;13.48;100.00;99589.70;112294;1195;61004;-80
2021/09/30 03:28:17;;;;;;;;;;;;;;;13.48;100.00;99597.03;112282;1196;64002;-80
2021/09/30 03:30:44;;;;;;;;;;;;;;;13.48;100.00;99603.11;112272;1195;60950;-80
2021/09/30 03:33:11;;;;;;;;;;;;;;;13.48;100.00;99609.71;112277;1193;61097;-80
2021/09/30 03:35:38;;;;;;;;;;;;;;;13.49;100.00;99612.89;112248;1196;64647;-80
2021/09/30 03:38:05;;;;;;;;;;;;;;;13.49;100.00;99616.21;112276;1196;60911;-80
2021/09/30 03:40:32;;;;;;;;;;;;;;;13.50;100.00;99620.08;112264;1195;62746;-80
2021/09/30 03:42:59;;;;;;;;;;;;;;;13.51;100.00;99617.20;112267;1195;61036;-80
2021/09/30 03:45:25;;;;;;;;;;;;;;;13.50;100.00;99612.59;112258;1195;60925;-80
2021/09/30 03:47:52;;;;;;;;;;;;;;;13.50;100.00;99612.80;112295;1195;65946;-81
2021/09/30 03:50:23;;;;;;;;;;;;;;;13.49;100.00;99615.23;112317;1193;61175;-82
2021/09/30 03:56:03;;;;;;;;;;;;;;;13.46;100.00;99629.98;112299;1196;60966;-81
2021/09/30 04:01:01;;;;;;;;;;;;;;;13.44;100.00;99628.55;112280;1194;65885;-82
2021/09/30 04:03:28;;;;;;;;;;;;;;;13.43;100.00;99636.66;112317;1195;60982;-81
2021/09/30 04:05:54;;;;;;;;;;;;;;;13.42;100.00;99642.59;112260;1194;63595;-80
2021/09/30 04:08:21;;;;;;;;;;;;;;;13.43;100.00;99642.92;112248;1196;60992;-85
2021/09/30 04:10:47;;;;;;;;;;;;;;;13.42;100.00;99644.73;112330;1196;61065;-81
2021/09/30 04:13:14;;;;;;;;;;;;;;;13.43;100.00;99648.27;112354;1196;64361;-82
2021/09/30 04:15:41;;;;;;;;;;;;;;;13.42;100.00;99648.85;112300;1194;61773;-83
2021/09/30 04:18:07;;;;;;;;;;;;;;;13.42;100.00;99657.05;112289;1196;63735;-82
2021/09/30 04:20:34;;;;;;;;;;;;;;;13.42;100.00;99660.83;112137;1195;61063;-81
2021/09/30 04:23:03;;;;;;;;;;;;;;;13.41;100.00;99663.40;112270;1195;61061;-81
2021/09/30 04:25:30;;;;;;;;;;;;;;;13.39;100.00;99662.08;112330;1195;66003;-81
2021/09/30 04:27:56;;;;;;;;;;;;;;;13.35;100.00;99659.48;112249;1196;61058;-81
2021/09/30 04:30:23;;;;;;;;;;;;;;;13.30;100.00;99657.72;112232;1194;60971;-81
2021/09/30 04:32:49;;;;;;;;;;;;;;;13.25;100.00;99653.73;112025;1195;61090;-82
2021/09/30 04:35:16;;;;;;;;;;;;;;;13.19;100.00;99648.94;112237;1196;61017;-81
2021/09/30 04:37:42;;;;;;;;;;;;;;;13.14;100.00;99654.66;112266;1194;61017;-81
2021/09/30 04:40:09;;;;;;;;;;;;;;;13.08;100.00;99662.02;112317;1195;61058;-81
2021/09/30 04:42:36;;;;;;;;;;;;;;;13.02;100.00;99662.94;112243;1196;64987;-81
2021/09/30 04:45:03;;;;;;;;;;;;;;;12.98;100.00;99666.42;112261;1196;60982;-79
2021/09/30 04:47:30;;;;;;;;;;;;;;;12.93;100.00;99671.52;112286;1195;61020;-81
2021/09/30 04:49:56;;;;;;;;;;;;;;;12.90;100.00;99674.07;112253;1194;64971;-79
2021/09/30 04:52:23;;;;;;;;;;;;;;;12.86;100.00;99676.11;112047;1196;61043;-80
2021/09/30 04:54:49;;;;;;;;;;;;;;;12.83;100.00;99684.33;112196;1196;61019;-80
2021/09/30 04:57:16;;;;;;;;;;;;;;;12.81;100.00;99692.17;112085;1196;61033;-81
2021/09/30 04:59:43;;;;;;;;;;;;;;;12.79;100.00;99701.20;112317;1196;61106;-80
2021/09/30 05:02:09;;;;;;;;;;;;;;;12.77;100.00;99707.04;112104;1195;67022;-80
2021/09/30 05:04:36;;;;;;;;;;;;;;;12.72;100.00;99713.54;112239;1194;61020;-81
2021/09/30 05:07:02;;;;;;;;;;;;;;;12.68;100.00;99718.11;112278;1196;64063;-81
2021/09/30 05:09:32;;;;;;;;;;;;;;;12.64;100.00;99724.82;112218;1196;61138;-81
2021/09/30 05:12:02;;;;;;;;;;;;;;;12.59;100.00;99733.30;112245;1195;61007;-81
2021/09/30 05:14:28;;;;;;;;;;;;;;;12.57;100.00;99737.71;112102;1195;66135;-81
2021/09/30 05:16:55;;;;;;;;;;;;;;;12.53;100.00;99742.27;112096;1194;60988;-83
2021/09/30 05:19:21;;;;;;;;;;;;;;;12.49;100.00;99749.41;112208;1195;63907;-80
2021/09/30 05:21:48;;;;;;;;;;;;;;;12.48;100.00;99753.09;112169;1196;61065;-82
2021/09/30 05:24:14;;;;;;;;;;;;;;;12.45;100.00;99753.95;112259;1195;61014;-84
2021/09/30 05:26:41;;;;;;;;;;;;;;;12.43;100.00;99758.56;112238;1196;61064;-81
2021/09/30 05:29:08;;;;;;;;;;;;;;;12.41;100.00;99760.96;112340;1196;60975;-80
2021/09/30 05:31:37;;;;;;;;;;;;;;;12.40;100.00;99763.71;112062;1194;62688;-80
2021/09/30 05:34:03;;;;;;;;;;;;;;;12.39;100.00;99766.12;112239;1195;61054;-81
2021/09/30 05:36:30;;;;;;;;;;;;;;;12.38;100.00;99778.09;112254;1195;61117;-82
2021/09/30 05:38:56;;;;;;;;;;;;;;;12.38;100.00;99786.13;112202;1196;66724;-84
2021/09/30 05:41:24;;;;;;;;;;;;;;;12.38;100.00;99787.77;112282;1196;61030;-82
2021/09/30 05:44:03;;;;;;;;;;;;;;;12.38;100.00;99793.80;112228;1195;63812;-83
2021/09/30 05:46:41;;;;;;;;;;;;;;;12.39;100.00;99803.17;112227;1195;61035;-82
2021/09/30 05:49:09;;;;;;;;;;;;;;;12.41;100.00;99810.34;112231;1194;61090;-81
2021/09/30 05:51:37;;;;;;;;;;;;;;;12.40;100.00;99819.66;112258;1195;65948;-83
2021/09/30 05:54:03;;;;;;;;;;;;;;;12.39;100.00;99826.48;112245;1196;61032;-85
2021/09/30 05:56:30;;;;;;;;;;;;;;;12.38;100.00;99831.06;112249;1196;62525;-82
2021/09/30 05:58:57;;;;;;;;;;;;;;;12.36;100.00;99839.35;112277;1196;61087;-82
2021/09/30 06:12:25;;;;;;;;;;;;;;;12.53;100.00;99858.10;112252;1197;61059;-80
2021/09/30 06:14:52;;;;;;;;;;;;;;;12.56;99.84;99868.08;112242;1194;61083;-80
2021/09/30 06:17:20;;;;;;;;;;;;;;;12.55;99.72;99872.05;112146;1196;66676;-80
2021/09/30 06:19:47;;;;;;;;;;;;;;;12.53;99.45;99873.60;112251;1195;61087;-80
2021/09/30 06:22:13;;;;;;;;;;;;;;;12.50;99.37;99872.91;112221;1195;63993;-82
2021/09/30 06:24:40;;;;;;;;;;;;;;;12.50;99.04;99870.77;112229;1195;61138;-80
2021/09/30 06:27:07;;;;;;;;;;;;;;;12.51;98.81;99867.99;112320;1192;61062;-80
2021/09/30 06:29:33;;;;;;;;;;;;;;;12.53;98.75;99875.20;112297;1195;66972;-80
2021/09/30 06:32:00;;;;;;;;;;;;;;;12.54;98.63;99879.46;112175;1195;61142;-80
2021/09/30 06:34:27;;;;;;;;;;;;;;;12.54;98.45;99878.20;112260;1195;61046;-82
2021/09/30 06:36:54;;;;;;;;;;;;;;;12.53;97.97;99880.20;112238;1194;61058;-80
2021/09/30 06:39:21;;;;;;;;;;;;;;;12.54;98.09;99879.23;112222;1195;61011;-80
2021/09/30 06:41:47;;;;;;;;;;;;;;;12.61;98.02;99879.52;112266;1196;61020;-81
2021/09/30 06:44:14;;;;;;;;;;;;;;;12.74;97.94;99882.66;112281;1196;61066;-80
2021/09/30 06:46:40;;;;;;;;;;;;;;;12.87;97.80;99878.45;112252;1195;61052;-80
2021/09/30 06:49:07;;;;;;;;;;;;;;;13.01;97.31;99880.42;112230;1194;60959;-80
2021/09/30 06:51:35;;;;;;;;;;;;;;;13.14;96.74;99884.43;112281;1194;60950;-80
2021/09/30 06:54:03;;;;;;;;;;;;;;;13.29;96.56;99886.55;112276;1196;67102;-80
2021/09/30 06:56:29;;;;;;;;;;;;;;;13.51;96.51;99887.80;112160;1195;60959;-81
2021/09/30 06:59:03;;;;;;;;;;;;;;;13.73;96.02;99892.64;112222;1195;64161;-83
2021/09/30 07:01:31;;;;;;;;;;;;;;;13.83;94.78;99896.99;112248;1196;61042;-82
2021/09/30 07:03:58;;;;;;;;;;;;;;;13.83;94.50;99903.38;112281;1193;61163;-82
2021/09/30 07:06:25;;;;;;;;;;;;;;;13.80;94.54;99906.30;112262;1197;64397;-81
2021/09/30 07:08:51;;;;;;;;;;;;;;;13.73;94.76;99915.52;112333;1195;60944;-83
2021/09/30 07:11:18;;;;;;;;;;;;;;;13.60;94.73;99924.20;112246;1196;64038;-82
2021/09/30 07:13:45;;;;;;;;;;;;;;;13.44;94.74;99927.17;112266;1194;61011;-83
2021/09/30 07:16:11;;;;;;;;;;;;;;;13.30;94.86;99932.02;112207;1195;60927;-82
2021/09/30 07:18:38;;;;;;;;;;;;;;;13.16;95.19;99938.52;112238;1194;61023;-82
2021/09/30 07:21:04;;;;;;;;;;;;;;;13.06;95.52;99939.55;112239;1196;60918;-82
2021/09/30 07:23:31;;;;;;;;;;;;;;;12.97;95.53;99939.04;112236;1196;61703;-81
2021/09/30 07:25:58;;;;;;;;;;;;;;;12.90;95.69;99942.50;112239;1196;61150;-83
2021/09/30 07:28:27;;;;;;;;;;;;;;;12.87;96.22;99948.55;112332;1195;61033;-80
2021/09/30 07:30:54;;;;;;;;;;;;;;;12.85;96.06;99953.34;112289;1196;64657;-82
2021/09/30 07:33:21;;;;;;;;;;;;;;;12.81;96.06;99957.53;112259;1196;61078;-81
2021/09/30 07:35:48;;;;;;;;;;;;;;;12.77;96.11;99953.10;112252;1196;62646;-81
2021/09/30 07:38:14;;;;;;;;;;;;;;;12.77;95.89;99956.66;112233;1194;61053;-81
2021/09/30 07:40:41;;;;;;;;;;;;;;;12.79;95.72;99958.48;112309;1196;61055;-82
2021/09/30 07:43:07;;;;;;;;;;;;;;;12.82;95.55;99956.37;112292;1194;61067;-80
2021/09/30 07:45:35;;;;;;;;;;;;;;;12.83;95.41;99956.68;112296;1196;60914;-81
2021/09/30 07:48:01;;;;;;;;;;;;;;;12.85;95.46;99958.83;112261;1196;62793;-81
2021/09/30 07:50:28;;;;;;;;;;;;;;;12.90;95.40;99959.96;112314;1194;61052;-81
2021/09/30 07:52:57;;;;;;;;;;;;;;;12.97;95.22;99962.38;111970;1196;61015;-82
2021/09/30 07:55:24;;;;;;;;;;;;;;;13.08;95.08;99962.27;112279;1195;65781;-81
2021/09/30 07:57:51;;;;;;;;;;;;;;;13.16;94.86;99958.91;112250;1195;61052;-81
2021/09/30 08:00:17;;;;;;;;;;;;;;;13.23;94.67;99960.77;112227;1195;60991;-80
2021/09/30 08:02:44;;;;;;;;;;;;;;;13.26;94.49;99965.07;112173;1196;61150;-80
2021/09/30 08:05:11;;;;;;;;;;;;;;;13.26;93.89;99962.39;112307;1196;61042;-81
2021/09/30 08:07:37;;;;;;;;;;;;;;;13.26;93.78;99967.02;112227;1196;61017;-82
2021/09/30 08:10:04;;;;;;;;;;;;;;;13.27;93.52;99972.00;112241;1196;61177;-82
2021/09/30 08:12:31;;;;;;;;;;;;;;;13.30;93.42;99973.92;112253;1195;63906;-82
2021/09/30 08:14:57;;;;;;;;;;;;;;;13.35;93.08;99973.95;112242;1193;61056;-80
2021/09/30 08:17:24;;;;;;;;;;;;;;;13.39;93.09;99974.80;112276;1196;61046;-82
2021/09/30 08:19:51;;;;;;;;;;;;;;;13.40;93.01;99981.73;112219;1196;66645;-82
2021/09/30 08:22:18;;;;;;;;;;;;;;;13.38;93.08;99990.38;112266;1196;61058;-82
2021/09/30 08:24:44;;;;;;;;;;;;;;;13.34;93.07;99992.27;112207;1196;61036;-81
2021/09/30 08:27:10;;;;;;;;;;;;;;;13.29;93.12;99993.44;112227;1194;61105;-82
2021/09/30 08:29:38;;;;;;;;;;;;;;;13.27;93.27;99988.58;112250;1194;61027;-82
2021/09/30 08:32:05;;;;;;;;;;;;;;;13.26;93.15;99992.38;112284;1195;66990;-81
2021/09/30 08:34:32;;;;;;;;;;;;;;;13.25;93.12;99999.23;112269;1196;61066;-82
2021/09/30 08:36:59;;;;;;;;;;;;;;;13.22;93.17;100011.20;112191;1196;62355;-81
2021/09/30 08:39:25;;;;;;;;;;;;;;;13.17;93.01;100016.82;112249;1195;61017;-82
2021/09/30 08:41:53;;;;;;;;;;;;;;;13.15;92.87;100016.08;112239;1195;60985;-81
2021/09/30 08:44:20;;;;;;;;;;;;;;;13.16;92.88;100018.66;112258;1195;67451;-81
2021/09/30 08:46:47;;;;;;;;;;;;;;;13.17;92.52;100019.34;112289;1195;60989;-81
2021/09/30 08:49:13;;;;;;;;;;;;;;;13.14;92.09;100017.77;112202;1195;62799;-82
2021/09/30 08:51:40;;;;;;;;;;;;;;;13.09;92.01;100019.80;112233;1196;60982;-82
2021/09/30 08:54:08;;;;;;;;;;;;;;;13.07;92.00;100018.36;112184;1196;61126;-81
2021/09/30 08:56:35;;;;;;;;;;;;;;;13.07;92.22;100016.20;112253;1196;66027;-82
2021/09/30 08:59:21;;;;;;;;;;;;;;;13.10;92.24;100022.06;112232;1196;61497;-81
2021/09/30 09:02:07;;;;;;;;;;;;;;;13.10;92.14;100026.02;112104;1195;63773;-81
2021/09/30 09:04:33;;;;;;;;;;;;;;;13.06;91.75;100023.05;112177;1196;61088;-81
2021/09/30 09:07:06;;;;;;;;;;;;;;;13.02;91.40;100019.73;112225;1195;60990;-81
2021/09/30 09:09:34;;;;;;;;;;;;;;;12.97;91.76;100021.11;112258;1195;66198;-81
2021/09/30 09:12:05;;;;;;;;;;;;;;;12.94;91.97;100021.28;112263;1196;60985;-81
2021/09/30 09:14:33;;;;;;;;;;;;;;;12.90;91.93;100021.48;112288;1196;64004;-80
2021/09/30 09:17:07;;;;;;;;;;;;;;;12.89;92.04;100026.39;112186;1196;61082;-80
2021/09/30 09:19:36;;;;;;;;;;;;;;;12.87;92.17;100028.48;112275;1196;60984;-80
2021/09/30 09:22:03;;;;;;;;;;;;;;;12.87;92.30;100026.70;112225;1195;64669;-80
2021/09/30 09:24:30;;;;;;;;;;;;;;;12.90;92.33;100026.88;112248;1195;61483;-80
2021/09/30 09:26:58;;;;;;;;;;;;;;;12.97;92.16;100028.23;112255;1197;62612;-82
2021/09/30 09:29:28;;;;;;;;;;;;;;;13.02;92.08;100031.48;112330;1196;61474;-80
2021/09/30 09:31:55;;;;;;;;;;;;;;;13.09;92.24;100036.61;112289;1195;61071;-80
2021/09/30 09:34:36;;;;;;;;;;;;;;;13.19;92.32;100042.42;112231;1196;64726;-80
2021/09/30 09:37:20;;;;;;;;;;;;;;;13.29;91.83;100046.86;112251;1196;61157;-80
2021/09/30 09:39:47;;;;;;;;;;;;;;;13.37;91.61;100052.59;112279;1196;63650;-80
2021/09/30 09:42:17;;;;;;;;;;;;;;;13.44;91.19;100051.46;112292;1195;61004;-80
2021/09/30 09:44:58;;;;;;;;;;;;;;;13.53;91.02;100053.36;112326;1195;61064;-80
2021/09/30 09:47:35;;;;;;;;;;;;;;;13.65;90.41;100047.42;112196;1195;65923;-81
2021/09/30 09:50:09;;;;;;;;;;;;;;;13.82;90.05;100041.39;112300;1196;61058;-80
2021/09/30 09:52:46;;;;;;;;;;;;;;;14.00;89.74;100039.84;112313;1196;62421;-81
2021/09/30 09:55:17;;;;;;;;;;;;;;;14.23;89.31;100039.27;112894;1193;61770;-81
2021/09/30 09:58:03;;;;;;;;;;;;;;;14.42;88.60;100040.33;112227;1195;61056;-83
2021/09/30 10:00:34;;;;;;;;;;;;;;;14.55;87.67;100039.71;112295;1195;66044;-82
2021/09/30 10:03:15;;;;;;;;;;;;;;;14.66;87.60;100040.01;112314;1196;61058;-80
2021/09/30 10:05:42;;;;;;;;;;;;;;;14.83;87.15;100040.30;112306;1196;63781;-83
2021/09/30 10:08:10;;;;;;;;;;;;;;;14.97;86.95;100037.07;112276;1193;61058;-83
2021/09/30 10:10:37;;;;;;;;;;;;;;;15.08;86.83;100037.54;112290;1195;61052;-83
2021/09/30 10:13:04;;;;;;;;;;;;;;;15.13;86.58;100034.32;112261;1194;64651;-81
2021/09/30 10:15:32;;;;;;;;;;;;;;;15.17;85.98;100032.10;112249;1196;61019;-82
2021/09/30 10:18:01;;;;;;;;;;;;;;;15.16;85.79;100033.39;112250;1195;63999;-83
2021/09/30 10:20:27;;;;;;;;;;;;;;;15.16;85.65;100036.98;112228;1194;61729;-81
2021/09/30 10:22:54;;;;;;;;;;;;;;;15.15;85.42;100035.09;112300;1196;61027;-81
2021/09/30 10:25:22;;;;;;;;;;;;;;;15.15;85.26;100033.87;112279;1195;66006;-82
2021/09/30 10:27:56;;;;;;;;;;;;;;;15.11;85.14;100035.73;112286;1196;61078;-82
2021/09/30 10:30:33;;;;;;;;;;;;;;;15.11;85.04;100036.06;112231;1196;65279;-81
2021/09/30 10:33:00;;;;;;;;;;;;;;;15.11;84.50;100031.09;112256;1196;60968;-81
2021/09/30 10:35:32;;;;;;;;;;;;;;;15.09;83.81;100027.78;112264;1193;60978;-81
2021/09/30 10:38:18;;;;;;;;;;;;;;;15.10;83.84;100025.95;112321;1196;64699;-81
2021/09/30 10:41:00;;;;;;;;;;;;;;;15.20;83.88;100024.56;112251;1195;61030;-81
2021/09/30 10:43:31;;;;;;;;;;;;;;;15.34;83.99;100028.57;112269;1195;63957;-81
2021/09/30 10:45:58;;;;;;;;;;;;;;;15.44;83.59;100029.52;112285;1193;61021;-84
2021/09/30 10:48:26;;;;;;;;;;;;;;;15.51;83.59;100026.85;112296;1193;61100;-81
2021/09/30 10:51:05;;;;;;;;;;;;;;;15.61;83.17;100024.14;112256;1196;64903;-82
2021/09/30 10:53:44;;;;;;;;;;;;;;;15.66;82.45;100020.38;112283;1195;61023;-81
2021/09/30 10:56:30;;;;;;;;;;;;;;;15.66;81.84;100024.20;112238;1195;64161;-81
2021/09/30 10:59:00;;;;;;;;;;;;;;;15.66;81.74;100028.47;112251;1196;61017;-81
2021/09/30 11:01:27;;;;;;;;;;;;;;;15.65;81.56;100029.09;112258;1193;60977;-83
2021/09/30 11:04:00;;;;;;;;;;;;;;;15.64;81.33;100030.40;112365;1195;60949;-90
2021/09/30 11:06:27;;;;;;;;;;;;;;;15.63;81.54;100021.13;112222;1196;61031;-88
2021/09/30 11:09:15;;;;;;;;;;;;;;;15.62;81.27;100028.18;112325;1195;62722;-88
2021/09/30 11:11:45;;;;;;;;;;;;;;;15.54;81.30;100030.70;112287;1193;61018;-89
2021/09/30 11:14:13;;;;;;;;;;;;;;;15.50;81.25;100028.69;112359;1196;61035;-89
2021/09/30 11:16:44;;;;;;;;;;;;;;;15.50;81.34;100023.66;112299;1195;66080;-88
2021/09/30 11:19:25;;;;;;;;;;;;;;;15.51;81.31;100025.38;112211;1196;60917;-88
2021/09/30 11:21:52;;;;;;;;;;;;;;;15.50;81.07;100026.58;112296;1196;64000;-88
2021/09/30 11:24:18;;;;;;;;;;;;;;;15.40;80.35;100027.61;112273;1193;60953;-88
2021/09/30 11:26:51;;;;;;;;;;;;;;;15.33;80.63;100029.36;112241;1195;61442;-88
2021/09/30 11:29:21;;;;;;;;;;;;;;;15.34;80.70;100030.77;112255;1196;66030;-88
2021/09/30 11:31:53;;;;;;;;;;;;;;;15.41;80.45;100026.86;112258;1195;61055;-88
2021/09/30 11:34:28;;;;;;;;;;;;;;;15.47;79.95;100025.15;112276;1195;63873;-87
2021/09/30 11:36:56;;;;;;;;;;;;;;;15.48;79.63;100027.06;112240;1195;61058;-88
2021/09/30 11:39:39;;;;;;;;;;;;;;;15.52;79.52;100025.33;112288;1193;61061;-88
2021/09/30 11:42:06;;;;;;;;;;;;;;;15.59;79.16;100025.19;112325;1195;64331;-88
2021/09/30 11:44:32;;;;;;;;;;;;;;;15.69;79.07;100026.10;112273;1196;61112;-88
2021/09/30 11:47:00;;;;;;;;;;;;;;;15.84;78.88;100020.40;112209;1195;62625;-88
2021/09/30 11:49:27;;;;;;;;;;;;;;;15.98;78.06;100021.18;112704;1196;61063;-87
2021/09/30 11:51:55;;;;;;;;;;;;;;;16.10;77.86;100022.64;112254;1196;60988;-88
2021/09/30 11:54:23;;;;;;;;;;;;;;;16.18;77.47;100027.59;112318;1196;64767;-88
2021/09/30 11:56:56;;;;;;;;;;;;;;;16.21;76.91;100023.63;112248;1196;61021;-88
2021/09/30 11:59:23;;;;;;;;;;;;;;;16.16;76.05;100024.48;112290;1195;65148;-88
2021/09/30 12:01:54;;;;;;;;;;;;;;;16.08;76.41;100028.30;112268;1193;61013;-90
2021/09/30 12:04:30;;;;;;;;;;;;;;;16.05;76.50;100026.94;112306;1195;60956;-89
2021/09/30 12:06:57;;;;;;;;;;;;;;;16.05;76.32;100024.98;112316;1196;66063;-89
2021/09/30 12:09:23;;;;;;;;;;;;;;;16.06;76.36;100028.15;112256;1196;61126;-88
2021/09/30 12:12:00;;;;;;;;;;;;;;;16.10;76.49;100030.84;112282;1196;64097;-87
2021/09/30 12:14:37;;;;;;;;;;;;;;;16.14;76.31;100030.90;112244;1195;61150;-88
2021/09/30 12:17:04;;;;;;;;;;;;;;;16.19;76.14;100031.29;112282;1196;60975;-88
2021/09/30 12:19:33;;;;;;;;;;;;;;;16.21;75.82;100030.80;112312;1196;66015;-88
2021/09/30 12:22:00;;;;;;;;;;;;;;;16.24;75.85;100030.02;112273;1196;61068;-88
2021/09/30 12:24:27;;;;;;;;;;;;;;;16.31;75.53;100031.98;112210;1196;62746;-88
2021/09/30 12:26:54;;;;;;;;;;;;;;;16.35;75.24;100031.20;112264;1193;61055;-88
2021/09/30 12:29:21;;;;;;;;;;;;;;;16.40;75.17;100029.74;112304;1193;60981;-88
2021/09/30 12:32:08;;;;;;;;;;;;;;;16.49;75.08;100028.49;112246;1196;64535;-88
2021/09/30 12:34:35;;;;;;;;;;;;;;;16.60;74.96;100031.42;112273;1195;61119;-88
2021/09/30 12:37:01;;;;;;;;;;;;;;;16.63;74.57;100030.45;112398;1196;63982;-87
2021/09/30 12:39:29;;;;;;;;;;;;;;;16.64;74.21;100031.48;112450;1193;61030;-89
2021/09/30 12:42:12;;;;;;;;;;;;;;;16.65;74.28;100027.45;112252;1196;60960;-88
2021/09/30 12:44:43;;;;;;;;;;;;;;;16.63;73.71;100028.00;112311;1196;66037;-89
2021/09/30 12:47:26;;;;;;;;;;;;;;;16.47;72.67;100026.69;112293;1195;60985;-88
2021/09/30 12:49:57;;;;;;;;;;;;;;;16.36;73.46;100024.80;112255;1194;63761;-87
2021/09/30 12:52:24;;;;;;;;;;;;;;;16.45;73.60;100021.84;112286;1194;61065;-88
2021/09/30 12:54:50;;;;;;;;;;;;;;;16.58;73.61;100026.79;112544;1193;60979;-88
2021/09/30 12:57:17;;;;;;;;;;;;;;;16.73;73.25;100026.00;112791;1194;61187;-87
2021/09/30 13:00:03;;;;;;;;;;;;;;;16.80;72.76;100026.73;112667;1194;60950;-87
2021/09/30 13:02:30;;;;;;;;;;;;;;;16.86;72.81;100026.48;112739;1195;62624;-88
2021/09/30 13:04:56;;;;;;;;;;;;;;;16.85;72.66;100025.29;112848;1196;61051;-88
2021/09/30 13:07:23;;;;;;;;;;;;;;;16.78;72.41;100025.44;112415;1195;61024;-88
2021/09/30 13:10:00;;;;;;;;;;;;;;;16.62;72.73;100025.02;112254;1194;61479;-90
2021/09/30 13:12:26;;;;;;;;;;;;;;;16.43;73.05;100019.80;112271;1195;60972;-85
2021/09/30 13:14:54;;;;;;;;;;;;;;;16.31;73.16;100018.41;112184;1195;60991;-86
2021/09/30 13:17:23;;;;;;;;;;;;;;;16.18;73.25;100020.62;112320;1195;60968;-83
2021/09/30 13:19:49;;;;;;;;;;;;;;;16.08;73.73;100017.94;112277;1193;61138;-84
2021/09/30 13:22:18;;;;;;;;;;;;;;;15.95;73.60;100018.19;112296;1195;65938;-84
2021/09/30 13:24:45;;;;;;;;;;;;;;;15.79;73.64;100017.89;112266;1195;61129;-85
2021/09/30 13:27:12;;;;;;;;;;;;;;;15.69;73.91;100015.02;112303;1194;62672;-85
2021/09/30 13:29:40;;;;;;;;;;;;;;;15.61;74.36;100011.46;112248;1193;61027;-84
2021/09/30 13:32:06;;;;;;;;;;;;;;;15.56;74.73;100015.20;112280;1194;60979;-84
2021/09/30 13:34:33;;;;;;;;;;;;;;;15.52;74.66;100016.39;112291;1194;64345;-84
2021/09/30 13:36:59;;;;;;;;;;;;;;;15.47;74.84;100017.82;112255;1196;61039;-84
2021/09/30 13:39:26;;;;;;;;;;;;;;;15.43;74.83;100017.92;112255;1195;63905;-84
2021/09/30 13:41:52;;;;;;;;;;;;;;;15.35;74.91;100016.86;112238;1196;61071;-84
2021/09/30 13:44:19;;;;;;;;;;;;;;;15.29;75.44;100019.59;112292;1195;60979;-83
2021/09/30 13:46:48;;;;;;;;;;;;;;;15.27;75.62;100020.45;112267;1195;65650;-85
2021/09/30 13:49:15;;;;;;;;;;;;;;;15.29;75.59;100011.53;112296;1196;60977;-85
2021/09/30 13:51:42;;;;;;;;;;;;;;;15.29;75.49;100007.11;112255;1195;61539;-85
2021/09/30 13:54:08;;;;;;;;;;;;;;;15.27;75.54;100007.37;112191;1196;61143;-85
2021/09/30 13:56:35;;;;;;;;;;;;;;;15.31;75.91;100002.80;112291;1195;61129;-85
2021/09/30 13:59:02;;;;;;;;;;;;;;;15.35;75.92;100002.16;112287;1195;66717;-86
2021/09/30 14:01:28;;;;;;;;;;;;;;;15.36;76.08;100005.12;112251;1195;61062;-85
2021/09/30 14:03:55;;;;;;;;;;;;;;;15.35;76.31;100004.48;112186;1196;63793;-85
2021/09/30 14:06:22;;;;;;;;;;;;;;;15.36;76.52;99999.97;112286;1196;61132;-84
2021/09/30 14:08:52;;;;;;;;;;;;;;;15.33;76.52;99999.11;112311;1196;61147;-84
2021/09/30 14:11:20;;;;;;;;;;;;;;;15.25;76.75;100001.08;112315;1195;67027;-84
2021/09/30 14:13:47;;;;;;;;;;;;;;;15.18;76.96;100000.70;112262;1194;61062;-84
2021/09/30 14:16:13;;;;;;;;;;;;;;;15.11;77.09;100003.11;112234;1195;61161;-85
2021/09/30 14:18:40;;;;;;;;;;;;;;;15.08;77.01;99999.42;112267;1193;60952;-84
2021/09/30 14:21:07;;;;;;;;;;;;;;;15.03;76.97;99999.94;112262;1194;61052;-85
2021/09/30 14:23:33;;;;;;;;;;;;;;;14.94;76.91;100002.89;112282;1193;64631;-85
2021/09/30 14:26:00;;;;;;;;;;;;;;;14.87;76.88;100003.39;112281;1193;60988;-83
2021/09/30 14:28:27;;;;;;;;;;;;;;;14.85;77.18;99997.39;112221;1196;64007;-84
2021/09/30 14:30:56;;;;;;;;;;;;;;;14.89;77.21;99997.36;112280;1194;61030;-84
2021/09/30 14:33:23;;;;;;;;;;;;;;;14.92;77.31;99998.21;112258;1195;61063;-85
2021/09/30 14:35:51;;;;;;;;;;;;;;;14.89;77.44;100002.31;112291;1196;64795;-84
2021/09/30 14:38:18;;;;;;;;;;;;;;;14.82;77.56;100000.86;112252;1195;61081;-86
2021/09/30 14:40:49;;;;;;;;;;;;;;;14.73;77.57;99998.40;112306;1195;64135;-85
2021/09/30 14:43:17;;;;;;;;;;;;;;;14.68;77.86;99995.55;112260;1193;61055;-86
2021/09/30 14:45:44;;;;;;;;;;;;;;;14.66;77.93;99996.53;112288;1193;61008;-85
2021/09/30 14:48:11;;;;;;;;;;;;;;;14.66;78.07;99993.31;112314;1195;66394;-85
2021/09/30 14:50:39;;;;;;;;;;;;;;;14.66;77.85;99992.30;112304;1195;61132;-84
2021/09/30 14:53:06;;;;;;;;;;;;;;;14.61;77.72;99995.34;112196;1195;62440;-85
2021/09/30 14:55:33;;;;;;;;;;;;;;;14.60;77.96;99997.91;112282;1195;61062;-85
2021/09/30 14:58:01;;;;;;;;;;;;;;;14.60;78.13;99998.21;112265;1194;61094;-84
2021/09/30 15:00:28;;;;;;;;;;;;;;;14.63;78.37;99997.16;112219;1195;65816;-84
2021/09/30 15:02:55;;;;;;;;;;;;;;;14.61;78.31;99999.27;112314;1196;61115;-84
2021/09/30 15:05:22;;;;;;;;;;;;;;;14.62;78.35;99996.70;112289;1195;62782;-84
2021/09/30 15:07:49;;;;;;;;;;;;;;;14.64;78.49;99996.86;112239;1193;61055;-84
2021/09/30 15:10:16;;;;;;;;;;;;;;;14.68;78.51;99992.83;112297;1194;61019;-83
2021/09/30 15:12:43;;;;;;;;;;;;;;;14.72;78.46;99990.10;112311;1195;65995;-84
2021/09/30 15:15:11;;;;;;;;;;;;;;;14.75;78.63;99989.73;112304;1194;61027;-84
2021/09/30 15:22:34;;;;;;;;;;;;;;;14.89;78.47;99990.68;112291;1195;61055;-85
2021/09/30 15:25:01;;;;;;;;;;;;;;;14.93;78.13;99994.21;112213;1195;66031;-85
2021/09/30 15:27:28;;;;;;;;;;;;;;;14.93;77.89;99993.66;112305;1196;61013;-86
2021/09/30 15:29:55;;;;;;;;;;;;;;;14.96;78.01;99994.73;112146;1195;62622;-85
2021/09/30 15:32:22;;;;;;;;;;;;;;;15.01;77.93;99992.75;112049;1196;61723;-84
2021/09/30 15:34:49;;;;;;;;;;;;;;;15.09;78.05;99994.52;112205;1193;61036;-84
2021/09/30 15:37:16;;;;;;;;;;;;;;;15.18;77.79;99989.98;112298;1196;66164;-84
2021/09/30 15:39:43;;;;;;;;;;;;;;;15.23;77.57;99990.50;112317;1195;61066;-85